Time;durP1;ratioP1;P1;durP2;ratioP2;P2;SDS_P1;SDS_P2;PMS_P1;PMS_P2;Temp;Humidity;BMP_temperature;BMP_pressure;BME280_temperature;BME280_humidity;BME280_pressure;Samples;Min_cycle;Max_cycle;Signal;HPM_P1;HPM_P2
2022/05/23 00:02:23;;;;;;;3.85;0.98;;;12.70;99.90;;;;;;4771948;30;20538;-84
2022/05/23 00:04:51;;;;;;;2.35;1.00;;;12.70;99.90;;;;;;4771278;29;20274;-84
2022/05/23 00:07:37;;;;;;;1.80;1.02;;;12.70;99.90;;;;;;4773242;30;20216;-83
2022/05/23 00:10:05;;;;;;;4.03;1.13;;;12.70;99.90;;;;;;4786841;29;20191;-83
2022/05/23 00:12:31;;;;;;;2.70;0.95;;;12.70;99.90;;;;;;4771669;30;20226;-83
2022/05/23 00:14:57;;;;;;;3.85;0.82;;;12.60;99.90;;;;;;4772761;30;20582;-82
2022/05/23 00:17:23;;;;;;;2.65;1.08;;;12.50;99.90;;;;;;4786605;29;20326;-83
2022/05/23 00:19:49;;;;;;;2.65;0.90;;;12.40;99.90;;;;;;4771277;30;20214;-83
2022/05/23 00:22:16;;;;;;;2.97;1.00;;;12.40;99.90;;;;;;4772515;30;20172;-82
2022/05/23 00:24:42;;;;;;;3.22;1.30;;;12.40;99.90;;;;;;4771441;30;20192;-82
2022/05/23 00:27:10;;;;;;;2.15;0.90;;;12.40;99.90;;;;;;4772417;30;20219;-83
2022/05/23 00:29:35;;;;;;;3.15;1.20;;;12.30;99.90;;;;;;4771423;30;20278;-83
2022/05/23 00:37:29;;;;;;;4.57;1.10;;;12.20;99.90;;;;;;4790621;30;20268;-83
2022/05/23 00:39:55;;;;;;;2.78;0.90;;;12.20;99.90;;;;;;4789127;29;20249;-82
2022/05/23 00:45:14;;;;;;;1.70;0.85;;;12.20;99.90;;;;;;4790546;30;20174;-82
2022/05/23 00:47:39;;;;;;;1.42;0.88;;;12.20;99.90;;;;;;4790054;29;20214;-83
2022/05/23 00:50:06;;;;;;;5.25;1.13;;;12.20;99.90;;;;;;4789929;29;20191;-82
2022/05/23 00:52:41;;;;;;;3.85;0.70;;;12.20;99.90;;;;;;4789862;29;20235;-83
2022/05/23 00:55:20;;;;;;;1.67;0.95;;;12.10;99.90;;;;;;4803776;29;20183;-83
2022/05/23 00:57:49;;;;;;;4.50;1.10;;;12.00;99.90;;;;;;4790214;29;20363;-83
2022/05/23 01:00:16;;;;;;;3.90;1.00;;;11.90;99.90;;;;;;4803749;29;20616;-83
2022/05/23 01:02:47;;;;;;;1.55;0.90;;;12.00;99.90;;;;;;4803670;29;20232;-83
2022/05/23 01:05:13;;;;;;;2.88;0.98;;;12.00;99.90;;;;;;4803370;29;20179;-83
2022/05/23 01:07:39;;;;;;;2.65;0.77;;;11.90;99.90;;;;;;4803632;29;20223;-83
2022/05/23 01:10:05;;;;;;;2.90;1.30;;;11.90;99.90;;;;;;4790031;29;20183;-83
2022/05/23 01:12:32;;;;;;;2.72;0.70;;;11.90;99.90;;;;;;4803856;29;20238;-82
2022/05/23 01:15:00;;;;;;;2.63;0.98;;;11.70;99.90;;;;;;4789725;29;20294;-83
2022/05/23 01:17:28;;;;;;;2.33;1.00;;;11.70;99.90;;;;;;4803585;29;20553;-83
2022/05/23 01:19:53;;;;;;;3.17;1.00;;;11.70;99.90;;;;;;4803463;29;20191;-82
2022/05/23 01:22:46;;;;;;;1.98;1.05;;;11.70;99.90;;;;;;4789784;29;20267;-82
2022/05/23 01:25:33;;;;;;;2.72;0.93;;;11.50;99.90;;;;;;4789764;29;20217;-83
2022/05/23 01:28:00;;;;;;;3.45;1.00;;;11.50;99.90;;;;;;4789880;29;20270;-82
2022/05/23 01:30:26;;;;;;;1.67;0.90;;;11.60;99.90;;;;;;4789428;29;20567;-83
2022/05/23 01:32:52;;;;;;;2.90;1.15;;;11.60;99.90;;;;;;4803504;29;20580;-83
2022/05/23 01:35:18;;;;;;;4.13;1.10;;;11.60;99.90;;;;;;4802704;29;20187;-83
2022/05/23 01:37:43;;;;;;;2.67;1.00;;;11.60;99.90;;;;;;4789406;29;20236;-83
2022/05/23 01:40:12;;;;;;;1.70;0.82;;;11.50;99.90;;;;;;4803257;29;20188;-82
2022/05/23 01:42:38;;;;;;;2.55;1.00;;;11.40;99.90;;;;;;4789414;29;20224;-83
2022/05/23 01:45:04;;;;;;;2.65;0.85;;;11.40;99.90;;;;;;4803354;29;20187;-83
2022/05/23 01:47:30;;;;;;;2.35;1.10;;;11.40;99.90;;;;;;4789471;29;20214;-83
2022/05/23 01:49:56;;;;;;;4.40;1.17;;;11.40;99.90;;;;;;4802969;29;20317;-83
2022/05/23 01:52:22;;;;;;;1.70;0.98;;;11.40;99.90;;;;;;4802662;29;20317;-83
2022/05/23 01:54:48;;;;;;;4.75;1.10;;;11.40;99.90;;;;;;4789227;29;20258;-83
2022/05/23 01:57:13;;;;;;;2.88;0.98;;;11.40;99.90;;;;;;4789440;29;20187;-83
2022/05/23 02:02:24;;;;;;;2.57;0.93;;;11.40;99.90;;;;;;4789801;30;20332;-83
2022/05/23 02:04:52;;;;;;;4.20;1.10;;;11.50;99.90;;;;;;4802891;29;20281;-83
2022/05/23 02:07:17;;;;;;;4.35;0.98;;;11.50;99.90;;;;;;4803024;29;20258;-82
2022/05/23 02:09:43;;;;;;;4.22;1.38;;;11.40;99.90;;;;;;4802960;29;20218;-83
2022/05/23 02:12:10;;;;;;;3.15;1.15;;;11.40;99.90;;;;;;4789382;29;20187;-83
2022/05/23 02:14:37;;;;;;;2.88;1.00;;;11.40;99.90;;;;;;4789041;29;20250;-83
2022/05/23 02:17:03;;;;;;;3.45;1.00;;;11.40;99.90;;;;;;4803191;29;20229;-83
2022/05/23 02:19:32;;;;;;;2.95;1.02;;;11.40;99.90;;;;;;4803145;29;20218;-83
2022/05/23 02:21:58;;;;;;;2.45;1.10;;;11.40;99.90;;;;;;4802724;29;20627;-83
2022/05/23 02:24:23;;;;;;;2.58;1.02;;;11.30;99.90;;;;;;4802601;29;20198;-83
2022/05/23 02:26:49;;;;;;;2.97;0.90;;;11.30;99.90;;;;;;4802756;29;20223;-83
2022/05/23 02:29:15;;;;;;;4.03;1.30;;;11.30;99.90;;;;;;4789101;29;20616;-83
2022/05/23 02:31:41;;;;;;;2.80;1.00;;;11.30;99.90;;;;;;4802852;29;20195;-83
2022/05/23 02:34:07;;;;;;;2.17;1.02;;;11.30;99.90;;;;;;4802834;29;20175;-84
2022/05/23 02:36:33;;;;;;;2.85;1.15;;;11.20;99.90;;;;;;4788798;29;20262;-83
2022/05/23 02:41:34;;;;;;;3.10;1.13;;;11.30;99.90;;;;;;4940975;24;20246;-81
2022/05/23 02:44:00;;;;;;;2.58;1.13;;;11.30;99.90;;;;;;4788611;29;20237;-82
2022/05/23 02:46:26;;;;;;;4.20;1.10;;;11.30;99.90;;;;;;4787433;29;20258;-81
2022/05/23 02:48:52;;;;;;;1.48;1.13;;;11.30;99.90;;;;;;4790155;29;20195;-82
2022/05/23 02:51:17;;;;;;;2.10;1.30;;;11.20;99.90;;;;;;4791970;29;20199;-82
2022/05/23 02:53:43;;;;;;;3.20;0.95;;;11.20;99.90;;;;;;4790755;29;20179;-82
2022/05/23 02:56:09;;;;;;;2.08;1.10;;;11.20;99.90;;;;;;4790786;30;20187;-81
2022/05/23 02:58:34;;;;;;;1.20;0.93;;;11.20;99.90;;;;;;4792369;29;20175;-82
2022/05/23 03:01:00;;;;;;;1.30;0.85;;;11.20;99.90;;;;;;4798380;29;20255;-81
2022/05/23 03:03:26;;;;;;;1.90;1.08;;;11.20;99.90;;;;;;4808747;29;20551;-81
2022/05/23 03:05:51;;;;;;;3.85;1.20;;;11.10;99.90;;;;;;4808299;29;20199;-82
2022/05/23 03:08:20;;;;;;;2.17;1.15;;;11.10;99.90;;;;;;4808776;29;20703;-81
2022/05/23 03:10:47;;;;;;;2.60;1.10;;;11.10;99.90;;;;;;4808697;29;20619;-82
2022/05/23 03:13:13;;;;;;;3.38;1.27;;;11.10;99.90;;;;;;4808718;29;20191;-81
2022/05/23 03:15:39;;;;;;;2.85;1.02;;;11.20;99.90;;;;;;4808218;29;20201;-81
2022/05/23 03:18:05;;;;;;;4.30;1.38;;;11.20;99.90;;;;;;4809770;29;20190;-82
2022/05/23 03:20:31;;;;;;;2.63;1.10;;;11.10;99.90;;;;;;4809481;29;20186;-82
2022/05/23 03:28:25;;;;;;;5.85;1.23;;;11.20;99.90;;;;;;4809643;29;20186;-82
2022/05/23 03:30:51;;;;;;;2.17;1.15;;;11.20;99.90;;;;;;4809471;29;20179;-82
2022/05/23 03:33:18;;;;;;;2.28;1.20;;;11.20;99.90;;;;;;4809717;29;20524;-82
2022/05/23 03:35:44;;;;;;;3.70;1.10;;;11.20;99.90;;;;;;4807914;29;20179;-82
2022/05/23 03:38:10;;;;;;;2.95;1.40;;;11.10;99.90;;;;;;4809692;29;20185;-82
2022/05/23 03:40:38;;;;;;;2.55;1.35;;;11.10;99.90;;;;;;4809283;29;20573;-82
2022/05/23 03:43:04;;;;;;;1.55;1.00;;;11.00;99.90;;;;;;4809247;29;20198;-82
2022/05/23 03:45:30;;;;;;;4.50;1.33;;;11.10;99.90;;;;;;4809070;29;20497;-81
2022/05/23 03:47:57;;;;;;;3.83;1.30;;;11.10;99.90;;;;;;4809153;29;20218;-81
2022/05/23 03:50:26;;;;;;;2.42;1.00;;;11.20;99.90;;;;;;4809052;29;20194;-81
2022/05/23 03:52:52;;;;;;;3.33;1.05;;;11.30;99.90;;;;;;4808134;29;20711;-81
2022/05/23 03:55:18;;;;;;;5.35;1.50;;;11.30;99.90;;;;;;4807694;29;20212;-82
2022/05/23 03:57:44;;;;;;;2.75;1.30;;;11.30;99.90;;;;;;4807715;29;20198;-81
2022/05/23 04:00:14;;;;;;;2.28;1.00;;;11.30;99.90;;;;;;4808961;29;20190;-81
2022/05/23 04:02:41;;;;;;;2.28;1.30;;;11.30;99.90;;;;;;4808621;29;20241;-81
2022/05/23 04:05:10;;;;;;;2.70;0.98;;;11.40;99.90;;;;;;4807644;29;20179;-81
2022/05/23 04:07:37;;;;;;;2.25;1.20;;;11.40;99.90;;;;;;4808815;29;20598;-82
2022/05/23 04:10:05;;;;;;;2.20;1.00;;;11.50;99.90;;;;;;4808647;29;20240;-82
2022/05/23 04:12:31;;;;;;;3.60;1.15;;;11.50;99.90;;;;;;4807537;29;20274;-83
2022/05/23 04:14:56;;;;;;;3.15;1.40;;;11.50;99.90;;;;;;4808441;29;20258;-82
2022/05/23 04:17:23;;;;;;;3.55;1.50;;;11.50;99.90;;;;;;4808754;29;20237;-83
2022/05/23 04:19:49;;;;;;;2.58;1.40;;;11.50;99.90;;;;;;4809151;29;20505;-82
2022/05/23 04:22:14;;;;;;;3.53;1.40;;;11.60;99.90;;;;;;4807212;29;20190;-82
2022/05/23 04:24:40;;;;;;;3.63;1.30;;;11.60;99.90;;;;;;4807979;29;20607;-81
2022/05/23 04:27:06;;;;;;;2.83;1.13;;;11.60;99.90;;;;;;4806294;29;20245;-82
2022/05/23 04:29:31;;;;;;;3.67;1.40;;;11.60;99.90;;;;;;4807394;29;20189;-81
2022/05/23 04:31:57;;;;;;;3.90;1.80;;;11.70;99.90;;;;;;4807301;29;20221;-82
2022/05/23 04:37:07;;;;;;;4.60;1.52;;;11.80;99.90;;;;;;4808397;29;20618;-81
2022/05/23 04:39:33;;;;;;;2.35;1.27;;;11.90;99.90;;;;;;4806984;29;20182;-82
2022/05/23 04:42:00;;;;;;;2.47;1.10;;;12.00;99.90;;;;;;4808243;29;20238;-81
2022/05/23 04:44:27;;;;;;;2.55;1.10;;;12.00;99.90;;;;;;4808459;29;20194;-80
2022/05/23 04:49:41;;;;;;;4.10;1.40;;;12.20;99.90;;;;;;4808105;29;20173;-81
2022/05/23 04:52:09;;;;;;;4.35;1.60;;;12.30;99.90;;;;;;4807754;29;20174;-81
2022/05/23 04:54:36;;;;;;;1.85;1.30;;;12.40;99.90;;;;;;4807059;29;20179;-81
2022/05/23 04:57:03;;;;;;;2.95;1.58;;;12.50;99.90;;;;;;4808171;29;20639;-81
2022/05/23 04:59:28;;;;;;;2.85;1.50;;;12.50;99.90;;;;;;4806925;29;20201;-82
2022/05/23 05:01:54;;;;;;;4.70;1.75;;;12.60;99.90;;;;;;4806801;29;20282;-82
2022/05/23 05:04:19;;;;;;;2.63;1.40;;;12.70;99.90;;;;;;4807762;29;20186;-81
2022/05/23 05:06:45;;;;;;;5.65;1.38;;;12.70;99.90;;;;;;4807500;29;20215;-81
2022/05/23 05:09:11;;;;;;;6.07;1.85;;;12.70;99.90;;;;;;4807924;29;20183;-81
2022/05/23 05:11:38;;;;;;;4.60;1.73;;;12.80;99.90;;;;;;4807252;29;20186;-83
2022/05/23 05:14:05;;;;;;;2.95;1.30;;;12.90;99.90;;;;;;4806467;29;20544;-81
2022/05/23 05:16:31;;;;;;;3.65;1.40;;;13.00;99.90;;;;;;4807370;29;20169;-81
2022/05/23 05:18:58;;;;;;;3.20;1.10;;;13.00;99.90;;;;;;4788438;29;20187;-80
2022/05/23 05:21:24;;;;;;;5.10;1.48;;;13.10;99.90;;;;;;4789286;29;20612;-81
2022/05/23 05:23:50;;;;;;;2.40;1.40;;;13.10;99.90;;;;;;4788498;29;20278;-81
2022/05/23 05:26:15;;;;;;;3.85;1.23;;;13.20;99.90;;;;;;4788259;29;20211;-81
2022/05/23 05:28:41;;;;;;;1.95;1.17;;;13.30;99.90;;;;;;4785898;29;20187;-80
2022/05/23 05:31:16;;;;;;;5.03;1.65;;;13.40;99.90;;;;;;4786532;29;20187;-80
2022/05/23 05:33:46;;;;;;;3.90;1.40;;;13.40;99.90;;;;;;4788108;29;20301;-80
2022/05/23 05:36:23;;;;;;;3.60;1.60;;;13.50;99.90;;;;;;4787866;29;20179;-80
2022/05/23 05:39:04;;;;;;;3.53;2.00;;;13.60;99.90;;;;;;4789453;29;20178;-80
2022/05/23 05:41:38;;;;;;;5.18;1.70;;;13.70;99.90;;;;;;4787881;29;20227;-79
2022/05/23 05:44:07;;;;;;;2.88;1.48;;;13.80;99.90;;;;;;4787950;29;20232;-81
2022/05/23 05:46:41;;;;;;;4.30;1.42;;;13.90;99.90;;;;;;4787975;29;20215;-79
2022/05/23 05:49:13;;;;;;;3.28;1.23;;;14.10;99.90;;;;;;4787874;29;20217;-80
2022/05/23 05:51:41;;;;;;;2.95;1.40;;;14.30;99.90;;;;;;4789084;29;20179;-81
2022/05/23 05:54:10;;;;;;;2.10;1.20;;;14.40;99.90;;;;;;4794859;29;20197;-80
2022/05/23 05:56:36;;;;;;;2.75;1.42;;;14.60;99.90;;;;;;4806984;29;20675;-80
2022/05/23 05:59:02;;;;;;;4.47;1.30;;;14.80;99.90;;;;;;4789849;29;20215;-79
2022/05/23 06:01:27;;;;;;;6.43;1.02;;;14.90;99.90;;;;;;4788961;29;20202;-79
2022/05/23 06:03:53;;;;;;;4.43;1.20;;;15.10;99.90;;;;;;4788999;29;20514;-80
2022/05/23 06:11:47;;;;;;;3.28;1.20;;;15.50;99.90;;;;;;4788963;30;20618;-79
2022/05/23 06:14:13;;;;;;;2.17;1.02;;;15.60;99.90;;;;;;4788805;30;20187;-80
2022/05/23 06:16:39;;;;;;;2.00;1.08;;;15.80;99.90;;;;;;4788831;29;20175;-81
2022/05/23 06:19:05;;;;;;;3.38;1.00;;;15.80;99.90;;;;;;4787452;29;20277;-80
2022/05/23 06:21:31;;;;;;;4.53;1.20;;;15.80;99.90;;;;;;4789217;29;20191;-79
2022/05/23 06:23:57;;;;;;;2.78;1.05;;;15.80;99.90;;;;;;4796818;29;20610;-81
2022/05/23 06:26:26;;;;;;;4.60;1.05;;;15.80;99.90;;;;;;4809040;29;20718;-80
2022/05/23 06:28:52;;;;;;;4.70;1.30;;;15.70;99.90;;;;;;4804385;29;20312;-82
2022/05/23 06:31:19;;;;;;;1.73;0.98;;;15.70;99.90;;;;;;4789619;29;20187;-82
2022/05/23 06:33:45;;;;;;;3.95;1.40;;;15.70;99.90;;;;;;4791998;29;20183;-80
2022/05/23 06:36:12;;;;;;;2.40;1.23;;;15.70;99.90;;;;;;4791698;30;20655;-80
2022/05/23 06:38:39;;;;;;;2.67;1.30;;;15.70;99.90;;;;;;4804210;29;20190;-80
2022/05/23 06:41:06;;;;;;;2.65;1.17;;;15.70;99.90;;;;;;4810131;29;20250;-80
2022/05/23 06:43:36;;;;;;;3.60;1.42;;;15.70;99.90;;;;;;4809857;29;20262;-80
2022/05/23 06:46:03;;;;;;;2.75;1.20;;;15.70;99.90;;;;;;4806446;29;20185;-82
2022/05/23 06:48:30;;;;;;;6.05;1.40;;;15.80;99.90;;;;;;4789095;29;20183;-81
2022/05/23 06:50:56;;;;;;;4.15;1.40;;;15.80;99.90;;;;;;4790992;29;20264;-80
2022/05/23 06:53:24;;;;;;;5.78;1.13;;;15.80;99.90;;;;;;4790085;29;20198;-80
2022/05/23 06:55:51;;;;;;;5.05;1.63;;;15.80;99.90;;;;;;4790984;29;20634;-81
2022/05/23 06:58:20;;;;;;;2.50;1.30;;;15.80;99.90;;;;;;4791486;29;20187;-80
2022/05/23 07:00:46;;;;;;;4.05;1.58;;;15.90;99.90;;;;;;4791260;29;20190;-81
2022/05/23 07:03:11;;;;;;;5.43;1.60;;;15.90;99.90;;;;;;4789636;29;20183;-81
2022/05/23 07:13:52;;;;;;;2.90;1.38;;;15.90;99.90;;;;;;4791561;30;20182;-79
2022/05/23 07:16:18;;;;;;;5.18;1.52;;;16.00;99.90;;;;;;4790345;29;20176;-80
2022/05/23 07:18:44;;;;;;;2.35;1.30;;;16.00;99.90;;;;;;4790095;29;20179;-80
2022/05/23 07:21:10;;;;;;;3.97;1.48;;;16.00;99.90;;;;;;4791453;29;20180;-79
2022/05/23 07:23:37;;;;;;;3.50;1.67;;;16.00;99.90;;;;;;4790464;29;20187;-79
2022/05/23 07:26:07;;;;;;;1.27;1.10;;;16.10;99.90;;;;;;4791229;29;20176;-81
2022/05/23 07:28:34;;;;;;;2.67;1.40;;;16.20;99.90;;;;;;4791994;29;20526;-80
2022/05/23 07:31:00;;;;;;;3.40;1.45;;;16.20;99.90;;;;;;4791331;29;20172;-80
2022/05/23 07:33:26;;;;;;;3.38;1.50;;;16.30;99.90;;;;;;4789433;29;20210;-80
2022/05/23 07:35:56;;;;;;;6.75;1.77;;;16.30;99.90;;;;;;4790152;29;20244;-80
2022/05/23 07:38:21;;;;;;;4.70;1.90;;;16.40;99.90;;;;;;4800757;29;20198;-80
2022/05/23 07:40:51;;;;;;;4.13;1.60;;;16.40;99.90;;;;;;4808718;29;20230;-80
2022/05/23 07:43:18;;;;;;;2.75;1.55;;;16.40;99.90;;;;;;4808509;29;20573;-79
2022/05/23 07:45:44;;;;;;;3.00;1.50;;;16.40;99.90;;;;;;4807847;29;20187;-80
2022/05/23 07:48:10;;;;;;;4.80;1.48;;;16.40;99.90;;;;;;4809219;29;20566;-81
2022/05/23 07:50:37;;;;;;;6.75;1.90;;;16.40;99.90;;;;;;4808986;29;20607;-81
2022/05/23 08:01:16;;;;;;;2.78;1.70;;;16.60;99.90;;;;;;4800054;29;20210;-80
2022/05/23 08:03:42;;;;;;;7.15;1.80;;;16.60;99.90;;;;;;4790587;30;20612;-79
2022/05/23 08:06:09;;;;;;;7.65;1.98;;;16.70;99.90;;;;;;4789476;29;20219;-81
2022/05/23 08:08:35;;;;;;;2.47;1.70;;;16.80;99.90;;;;;;4801841;29;20191;-80
2022/05/23 08:11:01;;;;;;;5.60;1.63;;;16.90;99.90;;;;;;4808863;29;20191;-80
2022/05/23 08:13:27;;;;;;;4.57;2.00;;;17.00;99.90;;;;;;4794119;29;20217;-79
2022/05/23 08:15:53;;;;;;;5.00;1.88;;;17.10;99.90;;;;;;4790550;30;20188;-81
2022/05/23 08:18:18;;;;;;;2.28;1.67;;;17.20;99.90;;;;;;4788598;29;20231;-80
2022/05/23 08:20:45;;;;;;;4.57;1.80;;;17.30;99.90;;;;;;4790549;29;20305;-80
2022/05/23 08:23:11;;;;;;;2.97;1.63;;;17.40;99.90;;;;;;4789283;29;20191;-80
2022/05/23 08:25:37;;;;;;;2.85;1.48;;;17.50;99.90;;;;;;4788984;29;20274;-80
2022/05/23 08:28:03;;;;;;;5.72;1.65;;;17.50;99.90;;;;;;4788879;29;20302;-80
2022/05/23 08:30:29;;;;;;;3.08;1.70;;;17.50;99.90;;;;;;4790349;29;20266;-80
2022/05/23 08:32:55;;;;;;;2.53;1.75;;;17.50;99.90;;;;;;4789012;29;20531;-79
2022/05/23 08:35:23;;;;;;;3.50;1.75;;;17.50;99.90;;;;;;4790258;29;20222;-80
2022/05/23 08:37:48;;;;;;;4.50;1.80;;;17.40;99.90;;;;;;4796914;29;20182;-79
2022/05/23 08:40:14;;;;;;;4.20;2.17;;;17.50;99.90;;;;;;4808127;29;20241;-80
2022/05/23 08:42:58;;;;;;;5.85;2.10;;;17.60;99.90;;;;;;4808375;29;20212;-80
2022/05/23 08:45:35;;;;;;;3.97;1.83;;;17.70;99.90;;;;;;4798979;29;20187;-80
2022/05/23 08:48:15;;;;;;;5.03;1.92;;;17.80;99.90;;;;;;4790294;29;20231;-80
2022/05/23 08:51:07;;;;;;;3.13;1.60;;;17.90;99.90;;;;;;4788985;29;20702;-81
2022/05/23 08:53:47;;;;;;;4.45;1.75;;;18.00;99.90;;;;;;4788172;30;20282;-81
2022/05/23 08:56:39;;;;;;;3.63;1.90;;;18.00;99.90;;;;;;4789880;29;20519;-81
2022/05/23 08:59:31;;;;;;;3.20;1.55;;;18.10;99.90;;;;;;4788075;29;20187;-81
2022/05/23 09:02:03;;;;;;;7.13;2.30;;;18.20;99.90;;;;;;4789829;29;20183;-80
2022/05/23 09:04:33;;;;;;;4.03;1.77;;;18.20;99.90;;;;;;4788746;29;20188;-81
2022/05/23 09:07:01;;;;;;;2.25;1.48;;;18.30;99.90;;;;;;4790342;29;20222;-80
2022/05/23 09:09:31;;;;;;;4.15;1.98;;;18.30;99.90;;;;;;4791605;29;20191;-80
2022/05/23 09:12:10;;;;;;;4.85;2.03;;;18.40;99.90;;;;;;4788236;29;20641;-80
2022/05/23 09:14:37;;;;;;;5.00;1.88;;;18.40;99.90;;;;;;4788012;29;20631;-79
2022/05/23 09:17:05;;;;;;;3.13;1.63;;;18.50;99.90;;;;;;4789783;29;20187;-80
2022/05/23 09:20:01;;;;;;;3.63;1.80;;;18.60;99.90;;;;;;4789687;29;20489;-80
2022/05/23 09:22:45;;;;;;;5.07;1.60;;;18.60;99.90;;;;;;4789179;30;20518;-80
2022/05/23 09:25:13;;;;;;;4.50;1.65;;;18.70;99.90;;;;;;4803011;29;20218;-79
2022/05/23 09:27:43;;;;;;;4.65;1.80;;;18.70;99.90;;;;;;4786545;29;20244;-81
2022/05/23 09:30:13;;;;;;;2.42;1.48;;;18.80;99.90;;;;;;4787341;29;20221;-81
2022/05/23 09:32:53;;;;;;;5.70;1.80;;;18.80;99.90;;;;;;4785681;29;20255;-80
2022/05/23 09:35:23;;;;;;;3.55;1.60;;;18.90;99.90;;;;;;4785665;30;20187;-81
2022/05/23 09:38:14;;;;;;;3.30;1.75;;;19.00;99.90;;;;;;4788951;30;20230;-81
2022/05/23 09:40:40;;;;;;;3.45;1.60;;;19.10;99.90;;;;;;4788095;29;20325;-80
2022/05/23 09:49:15;;;;;;;4.20;1.60;;;19.50;99.90;;;;;;4789379;30;20168;-79
2022/05/23 09:52:15;;;;;;;4.90;1.77;;;19.70;99.90;;;;;;4802292;29;20202;-80
2022/05/23 09:55:03;;;;;;;4.07;1.70;;;20.10;99.50;;;;;;4788808;29;20222;-80
2022/05/23 09:57:41;;;;;;;3.30;1.52;;;20.50;97.90;;;;;;4802589;29;20180;-82
2022/05/23 10:00:25;;;;;;;2.00;1.20;;;20.90;99.10;;;;;;4788611;29;20183;-81
2022/05/23 10:03:10;;;;;;;4.90;1.77;;;21.20;96.80;;;;;;4788874;29;20168;-83
2022/05/23 10:05:50;;;;;;;2.70;1.52;;;21.40;96.80;;;;;;4787915;29;20175;-82
2022/05/23 10:08:28;;;;;;;5.32;1.50;;;21.40;96.20;;;;;;4787576;29;20271;-82
2022/05/23 10:11:00;;;;;;;4.35;1.60;;;21.50;96.30;;;;;;4769820;30;20195;-82
2022/05/23 10:13:28;;;;;;;4.57;1.60;;;21.50;95.20;;;;;;4770086;30;20186;-82
2022/05/23 10:16:13;;;;;;;4.43;1.50;;;21.50;94.00;;;;;;4770720;30;20180;-83
2022/05/23 10:18:59;;;;;;;6.93;1.50;;;21.70;95.30;;;;;;4771278;30;20176;-79
2022/05/23 10:21:38;;;;;;;4.50;1.55;;;21.70;94.00;;;;;;4774968;30;20191;-83
2022/05/23 10:24:10;;;;;;;4.30;1.70;;;21.80;94.20;;;;;;4788897;30;20258;-81
2022/05/23 10:26:40;;;;;;;3.63;1.73;;;21.70;93.40;;;;;;4788616;30;20199;-81
2022/05/23 10:29:12;;;;;;;3.10;1.80;;;21.70;93.80;;;;;;4802773;29;20658;-81
2022/05/23 10:31:48;;;;;;;4.50;1.73;;;21.60;93.10;;;;;;4788877;29;20175;-81
2022/05/23 10:34:24;;;;;;;2.25;1.40;;;21.60;93.30;;;;;;4788925;30;20179;-81
2022/05/23 10:36:53;;;;;;;4.47;1.45;;;21.60;93.20;;;;;;4788981;30;20207;-81
2022/05/23 10:42:25;;;;;;;3.05;1.55;;;21.40;92.90;;;;;;4806497;29;20721;-79
2022/05/23 10:45:09;;;;;;;3.70;1.50;;;21.50;94.30;;;;;;4805467;29;20183;-81
2022/05/23 10:47:59;;;;;;;3.25;1.38;;;21.50;94.40;;;;;;4805870;29;20599;-82
2022/05/23 10:50:37;;;;;;;6.70;1.88;;;21.60;93.40;;;;;;4806844;29;20253;-80
2022/05/23 10:53:08;;;;;;;3.80;1.60;;;21.50;93.60;;;;;;4806868;29;20175;-83
2022/05/23 10:55:34;;;;;;;4.68;1.40;;;21.50;94.60;;;;;;4804327;29;20179;-82
2022/05/23 10:58:08;;;;;;;2.78;1.42;;;21.40;93.80;;;;;;4805182;29;20198;-82
2022/05/23 11:01:07;;;;;;;4.22;1.55;;;21.30;94.00;;;;;;4787192;30;20187;-82
2022/05/23 11:03:48;;;;;;;2.25;1.30;;;21.30;94.30;;;;;;4802544;29;20193;-83
2022/05/23 11:06:41;;;;;;;3.33;1.60;;;21.60;94.80;;;;;;4788422;29;20623;-81
2022/05/23 11:09:30;;;;;;;7.32;1.67;;;21.70;94.60;;;;;;4786521;29;20640;-82
2022/05/23 11:12:14;;;;;;;2.50;1.45;;;21.80;93.90;;;;;;4806194;29;20299;-81
2022/05/23 11:15:05;;;;;;;1.30;1.10;;;21.80;93.70;;;;;;4808505;29;20183;-82
2022/05/23 11:18:10;;;;;;;3.47;1.33;;;21.80;93.50;;;;;;4808606;29;20190;-79
2022/05/23 11:20:41;;;;;;;2.70;1.60;;;21.90;93.40;;;;;;4789799;29;20179;-80
2022/05/23 11:23:29;;;;;;;5.72;1.42;;;22.10;93.30;;;;;;4807963;29;20183;-81
2022/05/23 11:26:20;;;;;;;3.67;1.52;;;22.40;94.00;;;;;;4808363;29;20210;-81
2022/05/23 11:34:41;;;;;;;3.88;1.45;;;22.90;92.40;;;;;;4773577;30;20545;-80
2022/05/23 11:40:06;;;;;;;2.92;1.40;;;23.50;92.30;;;;;;4791517;29;20266;-80
2022/05/23 11:42:59;;;;;;;3.55;1.35;;;23.60;92.00;;;;;;4790106;30;20191;-81
2022/05/23 11:48:44;;;;;;;2.80;1.30;;;23.80;91.40;;;;;;4791097;30;20222;-82
2022/05/23 11:51:23;;;;;;;3.25;1.52;;;23.80;90.40;;;;;;4795573;29;20179;-83
2022/05/23 11:54:21;;;;;;;2.45;1.27;;;23.70;90.90;;;;;;4793556;29;20281;-80
2022/05/23 11:57:12;;;;;;;6.38;1.83;;;23.70;91.90;;;;;;4804653;29;20214;-82
2022/05/23 11:59:38;;;;;;;3.13;1.30;;;23.90;91.20;;;;;;4790923;29;20611;-81
2022/05/23 12:02:06;;;;;;;3.58;1.35;;;24.30;91.60;;;;;;4789559;29;20202;-81
2022/05/23 12:04:32;;;;;;;4.32;1.20;;;24.40;90.50;;;;;;4790947;29;20509;-81
2022/05/23 12:06:58;;;;;;;3.00;1.30;;;24.40;89.40;;;;;;4799545;29;20658;-81
2022/05/23 12:09:30;;;;;;;3.17;1.30;;;24.50;90.40;;;;;;4808850;29;20213;-82
2022/05/23 12:12:24;;;;;;;1.98;1.20;;;24.20;89.80;;;;;;4806690;29;20499;-82
2022/05/23 12:14:53;;;;;;;2.88;1.20;;;23.90;90.10;;;;;;4808978;29;20221;-80
2022/05/23 12:17:32;;;;;;;1.63;1.25;;;23.70;90.60;;;;;;4808666;29;20193;-82
2022/05/23 12:20:21;;;;;;;3.60;1.30;;;23.60;91.30;;;;;;4791989;29;20210;-84
2022/05/23 12:23:15;;;;;;;9.20;1.20;;;23.40;91.10;;;;;;4803391;29;20565;-81
2022/05/23 12:25:41;;;;;;;2.20;1.33;;;23.50;92.80;;;;;;4808488;29;20226;-81
2022/05/23 12:28:14;;;;;;;4.32;1.38;;;23.50;91.90;;;;;;4807250;29;20298;-83
2022/05/23 12:31:07;;;;;;;3.75;1.40;;;23.70;92.20;;;;;;4807403;29;20182;-85
2022/05/23 12:33:33;;;;;;;4.57;1.40;;;23.60;91.00;;;;;;4802547;29;20194;-82
2022/05/23 12:36:10;;;;;;;4.70;1.30;;;23.50;91.00;;;;;;4806102;29;20235;-83
2022/05/23 12:38:47;;;;;;;4.03;1.10;;;23.50;91.80;;;;;;4808360;29;20178;-83
2022/05/23 12:41:35;;;;;;;3.28;1.20;;;23.60;93.00;;;;;;4807980;29;20238;-80
2022/05/23 12:44:14;;;;;;;3.20;1.25;;;23.70;91.90;;;;;;4789161;29;20199;-80
2022/05/23 12:47:01;;;;;;;3.83;1.50;;;23.70;91.00;;;;;;4796301;29;20210;-81
2022/05/23 12:49:58;;;;;;;3.20;1.40;;;23.60;91.30;;;;;;4793654;29;20191;-81
2022/05/23 12:52:37;;;;;;;2.83;1.33;;;23.50;90.60;;;;;;4797956;29;20266;-81
2022/05/23 12:55:21;;;;;;;3.53;1.58;;;23.60;91.30;;;;;;4790430;29;20193;-81
2022/05/23 12:58:20;;;;;;;4.75;1.38;;;23.70;90.90;;;;;;4789393;30;20194;-82
2022/05/23 13:00:58;;;;;;;4.97;1.67;;;24.10;91.10;;;;;;4790223;30;20652;-80
2022/05/23 13:04:05;;;;;;;2.53;1.35;;;24.40;88.90;;;;;;4789079;29;20625;-82
2022/05/23 13:06:33;;;;;;;3.42;1.30;;;24.70;91.60;;;;;;4796897;29;20229;-81
2022/05/23 13:09:26;;;;;;;4.00;1.83;;;24.70;89.70;;;;;;4807942;29;20214;-82
2022/05/23 13:11:56;;;;;;;3.78;1.40;;;24.70;90.30;;;;;;4797562;29;20183;-81
2022/05/23 13:14:22;;;;;;;4.82;1.48;;;24.50;88.90;;;;;;4789659;29;20232;-82
2022/05/23 13:16:53;;;;;;;3.35;1.30;;;24.70;90.20;;;;;;4794514;29;20186;-82
2022/05/23 13:22:09;;;;;;;2.55;1.40;;;24.80;88.80;;;;;;4807220;29;20243;-82
2022/05/23 13:24:57;;;;;;;2.72;1.50;;;24.50;90.00;;;;;;4804496;29;20259;-83
2022/05/23 13:27:27;;;;;;;3.53;1.20;;;24.30;90.40;;;;;;4805928;29;20215;-82
2022/05/23 13:29:58;;;;;;;2.40;1.33;;;24.00;91.30;;;;;;4807278;29;20638;-81
2022/05/23 13:32:26;;;;;;;3.10;1.20;;;23.80;90.20;;;;;;4805710;29;20178;-82
2022/05/23 13:34:53;;;;;;;6.40;1.38;;;23.70;90.80;;;;;;4806026;29;20197;-81
2022/05/23 13:37:26;;;;;;;2.13;1.30;;;23.80;91.70;;;;;;4806510;29;20187;-82
2022/05/23 13:39:52;;;;;;;2.92;1.50;;;23.80;89.60;;;;;;4805866;29;20285;-82
2022/05/23 13:42:21;;;;;;;2.85;1.40;;;23.90;90.60;;;;;;4804958;29;20190;-81
2022/05/23 13:44:48;;;;;;;3.35;1.33;;;24.00;90.80;;;;;;4807352;29;20571;-81
2022/05/23 13:47:20;;;;;;;1.92;0.90;;;24.20;91.50;;;;;;4804883;29;20218;-81
2022/05/23 13:49:53;;;;;;;4.90;1.55;;;24.40;91.10;;;;;;4807401;29;20246;-81
2022/05/23 13:52:51;;;;;;;2.20;1.27;;;24.60;90.80;;;;;;4807468;29;20171;-82
2022/05/23 13:55:30;;;;;;;5.60;1.35;;;24.90;89.30;;;;;;4798069;29;20194;-82
2022/05/23 13:58:20;;;;;;;4.40;1.33;;;25.00;87.60;;;;;;4805798;29;20186;-83
2022/05/23 14:01:01;;;;;;;2.38;1.45;;;25.20;88.40;;;;;;4806986;29;20626;-82
2022/05/23 14:03:41;;;;;;;6.97;1.20;;;25.50;89.30;;;;;;4805615;29;20236;-82
2022/05/23 14:06:13;;;;;;;4.22;1.10;;;25.60;87.10;;;;;;4804966;29;20175;-81
2022/05/23 14:08:43;;;;;;;4.28;1.35;;;25.60;87.40;;;;;;4771331;30;20206;-82
2022/05/23 14:11:34;;;;;;;4.68;1.50;;;25.70;88.30;;;;;;4771154;30;20187;-82
2022/05/23 14:14:27;;;;;;;5.07;2.13;;;25.70;88.40;;;;;;4771275;30;20181;-82
2022/05/23 14:16:59;;;;;;;4.43;1.40;;;25.70;87.60;;;;;;4780794;29;20210;-81
2022/05/23 14:19:28;;;;;;;5.50;1.40;;;25.70;87.20;;;;;;4807161;29;20175;-84
2022/05/23 14:22:23;;;;;;;6.70;1.48;;;25.50;87.60;;;;;;4807144;29;20183;-83